sensor_id;sensor_type;location;lat;lon;timestamp;P1;durP1;ratioP1;P2;durP2;ratioP2
15142;SDS011;7672;50.834;6.286;2024-01-15T00:00:58;20.80;;;11.40;;
15142;SDS011;7672;50.834;6.286;2024-01-15T00:03:25;19.97;;;10.93;;
15142;SDS011;7672;50.834;6.286;2024-01-15T00:05:52;20.43;;;10.07;;
15142;SDS011;7672;50.834;6.286;2024-01-15T00:08:19;25.60;;;12.67;;
15142;SDS011;7672;50.834;6.286;2024-01-15T00:10:45;21.23;;;11.33;;
15142;SDS011;7672;50.834;6.286;2024-01-15T00:13:12;20.23;;;10.73;;
15142;SDS011;7672;50.834;6.286;2024-01-15T00:15:39;20.93;;;10.17;;
15142;SDS011;7672;50.834;6.286;2024-01-15T00:18:06;22.00;;;11.27;;
15142;SDS011;7672;50.834;6.286;2024-01-15T00:20:34;21.77;;;10.63;;
15142;SDS011;7672;50.834;6.286;2024-01-15T00:23:01;19.17;;;10.93;;
15142;SDS011;7672;50.834;6.286;2024-01-15T00:25:28;22.33;;;10.47;;
15142;SDS011;7672;50.834;6.286;2024-01-15T00:27:55;19.63;;;11.23;;
15142;SDS011;7672;50.834;6.286;2024-01-15T00:30:22;18.17;;;10.43;;
15142;SDS011;7672;50.834;6.286;2024-01-15T00:32:49;21.87;;;11.30;;
15142;SDS011;7672;50.834;6.286;2024-01-15T00:35:16;21.23;;;10.57;;
15142;SDS011;7672;50.834;6.286;2024-01-15T00:37:43;23.23;;;10.40;;
15142;SDS011;7672;50.834;6.286;2024-01-15T00:40:09;18.83;;;10.20;;
15142;SDS011;7672;50.834;6.286;2024-01-15T00:42:37;18.20;;;10.17;;
15142;SDS011;7672;50.834;6.286;2024-01-15T00:45:04;22.47;;;10.77;;
15142;SDS011;7672;50.834;6.286;2024-01-15T00:47:33;22.63;;;10.07;;
15142;SDS011;7672;50.834;6.286;2024-01-15T00:50:01;19.53;;;10.47;;
15142;SDS011;7672;50.834;6.286;2024-01-15T00:52:28;18.50;;;9.53;;
15142;SDS011;7672;50.834;6.286;2024-01-15T00:54:55;22.93;;;10.33;;
15142;SDS011;7672;50.834;6.286;2024-01-15T00:57:22;23.00;;;10.97;;
15142;SDS011;7672;50.834;6.286;2024-01-15T00:59:49;23.27;;;11.20;;
15142;SDS011;7672;50.834;6.286;2024-01-15T01:02:16;21.60;;;10.77;;
15142;SDS011;7672;50.834;6.286;2024-01-15T01:04:43;18.93;;;10.13;;
15142;SDS011;7672;50.834;6.286;2024-01-15T01:07:09;19.80;;;10.37;;
15142;SDS011;7672;50.834;6.286;2024-01-15T01:09:36;25.00;;;11.30;;
15142;SDS011;7672;50.834;6.286;2024-01-15T01:12:03;25.33;;;10.97;;
15142;SDS011;7672;50.834;6.286;2024-01-15T01:14:31;20.17;;;11.07;;
15142;SDS011;7672;50.834;6.286;2024-01-15T01:16:58;22.97;;;10.83;;
15142;SDS011;7672;50.834;6.286;2024-01-15T01:19:25;23.53;;;11.67;;
15142;SDS011;7672;50.834;6.286;2024-01-15T01:21:52;25.47;;;11.50;;
15142;SDS011;7672;50.834;6.286;2024-01-15T01:24:19;19.83;;;11.50;;
15142;SDS011;7672;50.834;6.286;2024-01-15T01:26:46;20.70;;;10.80;;
15142;SDS011;7672;50.834;6.286;2024-01-15T01:29:13;22.77;;;12.20;;
15142;SDS011;7672;50.834;6.286;2024-01-15T01:31:43;21.87;;;12.13;;
15142;SDS011;7672;50.834;6.286;2024-01-15T01:34:13;25.73;;;11.97;;
15142;SDS011;7672;50.834;6.286;2024-01-15T01:36:41;22.17;;;11.67;;
15142;SDS011;7672;50.834;6.286;2024-01-15T01:39:09;22.63;;;12.20;;
15142;SDS011;7672;50.834;6.286;2024-01-15T01:41:38;30.13;;;12.40;;
15142;SDS011;7672;50.834;6.286;2024-01-15T01:44:06;20.70;;;11.30;;
15142;SDS011;7672;50.834;6.286;2024-01-15T01:46:33;26.87;;;12.17;;
15142;SDS011;7672;50.834;6.286;2024-01-15T01:49:06;22.30;;;11.27;;
15142;SDS011;7672;50.834;6.286;2024-01-15T01:51:36;23.73;;;11.43;;
15142;SDS011;7672;50.834;6.286;2024-01-15T01:54:06;21.27;;;11.20;;
15142;SDS011;7672;50.834;6.286;2024-01-15T01:56:35;25.27;;;11.13;;
15142;SDS011;7672;50.834;6.286;2024-01-15T01:59:02;25.47;;;12.00;;
15142;SDS011;7672;50.834;6.286;2024-01-15T02:01:31;22.57;;;11.33;;
15142;SDS011;7672;50.834;6.286;2024-01-15T02:03:58;24.73;;;11.63;;
15142;SDS011;7672;50.834;6.286;2024-01-15T02:06:26;20.60;;;11.30;;
15142;SDS011;7672;50.834;6.286;2024-01-15T02:08:53;22.80;;;11.10;;
15142;SDS011;7672;50.834;6.286;2024-01-15T02:11:21;24.43;;;12.10;;
15142;SDS011;7672;50.834;6.286;2024-01-15T02:13:48;24.33;;;12.63;;
15142;SDS011;7672;50.834;6.286;2024-01-15T02:16:15;23.90;;;12.97;;
15142;SDS011;7672;50.834;6.286;2024-01-15T02:18:43;22.43;;;11.87;;
15142;SDS011;7672;50.834;6.286;2024-01-15T02:21:11;18.60;;;11.27;;
15142;SDS011;7672;50.834;6.286;2024-01-15T02:23:38;25.17;;;13.13;;
15142;SDS011;7672;50.834;6.286;2024-01-15T02:26:05;28.10;;;13.23;;
15142;SDS011;7672;50.834;6.286;2024-01-15T02:28:33;23.20;;;11.57;;
15142;SDS011;7672;50.834;6.286;2024-01-15T02:31:00;24.83;;;13.20;;
15142;SDS011;7672;50.834;6.286;2024-01-15T02:33:27;24.60;;;12.50;;
15142;SDS011;7672;50.834;6.286;2024-01-15T02:35:55;25.80;;;12.53;;
15142;SDS011;7672;50.834;6.286;2024-01-15T02:38:21;22.10;;;12.83;;
15142;SDS011;7672;50.834;6.286;2024-01-15T02:40:49;26.47;;;12.03;;
15142;SDS011;7672;50.834;6.286;2024-01-15T02:43:16;24.70;;;11.70;;
15142;SDS011;7672;50.834;6.286;2024-01-15T02:45:45;26.37;;;12.50;;
15142;SDS011;7672;50.834;6.286;2024-01-15T02:48:13;18.70;;;11.57;;
15142;SDS011;7672;50.834;6.286;2024-01-15T02:50:40;23.10;;;12.80;;
15142;SDS011;7672;50.834;6.286;2024-01-15T02:53:07;29.50;;;12.90;;
15142;SDS011;7672;50.834;6.286;2024-01-15T02:55:34;29.27;;;14.00;;
15142;SDS011;7672;50.834;6.286;2024-01-15T02:58:01;23.30;;;13.27;;
15142;SDS011;7672;50.834;6.286;2024-01-15T03:00:28;25.73;;;12.93;;
15142;SDS011;7672;50.834;6.286;2024-01-15T03:02:54;26.00;;;12.87;;
15142;SDS011;7672;50.834;6.286;2024-01-15T03:05:21;24.50;;;12.93;;
15142;SDS011;7672;50.834;6.286;2024-01-15T03:07:48;23.70;;;13.33;;
15142;SDS011;7672;50.834;6.286;2024-01-15T03:10:15;22.00;;;12.83;;
15142;SDS011;7672;50.834;6.286;2024-01-15T03:12:42;24.03;;;12.73;;
15142;SDS011;7672;50.834;6.286;2024-01-15T03:15:09;20.50;;;11.53;;
15142;SDS011;7672;50.834;6.286;2024-01-15T03:17:36;20.00;;;9.90;;
15142;SDS011;7672;50.834;6.286;2024-01-15T03:20:03;23.27;;;11.07;;
15142;SDS011;7672;50.834;6.286;2024-01-15T03:22:31;18.17;;;10.20;;
15142;SDS011;7672;50.834;6.286;2024-01-15T03:24:58;18.47;;;10.97;;
15142;SDS011;7672;50.834;6.286;2024-01-15T03:27:25;15.67;;;9.47;;
15142;SDS011;7672;50.834;6.286;2024-01-15T03:29:52;19.13;;;9.70;;
15142;SDS011;7672;50.834;6.286;2024-01-15T03:32:19;23.50;;;11.17;;
15142;SDS011;7672;50.834;6.286;2024-01-15T03:34:46;15.53;;;9.00;;
15142;SDS011;7672;50.834;6.286;2024-01-15T03:37:14;15.43;;;9.20;;
15142;SDS011;7672;50.834;6.286;2024-01-15T03:39:41;16.37;;;9.13;;
15142;SDS011;7672;50.834;6.286;2024-01-15T03:42:08;17.90;;;9.70;;
15142;SDS011;7672;50.834;6.286;2024-01-15T03:44:35;16.30;;;9.73;;
15142;SDS011;7672;50.834;6.286;2024-01-15T03:47:02;14.13;;;10.03;;
15142;SDS011;7672;50.834;6.286;2024-01-15T03:49:29;15.73;;;10.17;;
15142;SDS011;7672;50.834;6.286;2024-01-15T03:51:56;16.70;;;10.20;;
15142;SDS011;7672;50.834;6.286;2024-01-15T03:54:23;14.77;;;8.03;;
15142;SDS011;7672;50.834;6.286;2024-01-15T03:56:50;16.37;;;9.20;;
15142;SDS011;7672;50.834;6.286;2024-01-15T03:59:17;16.67;;;10.20;;
15142;SDS011;7672;50.834;6.286;2024-01-15T04:01:50;17.03;;;9.60;;
15142;SDS011;7672;50.834;6.286;2024-01-15T04:04:18;16.63;;;8.47;;
15142;SDS011;7672;50.834;6.286;2024-01-15T04:06:45;19.17;;;10.07;;
15142;SDS011;7672;50.834;6.286;2024-01-15T04:09:13;15.70;;;9.73;;
15142;SDS011;7672;50.834;6.286;2024-01-15T04:11:40;16.50;;;9.40;;
15142;SDS011;7672;50.834;6.286;2024-01-15T04:14:07;17.73;;;9.57;;
15142;SDS011;7672;50.834;6.286;2024-01-15T04:17:02;18.90;;;10.80;;
15142;SDS011;7672;50.834;6.286;2024-01-15T04:19:39;17.77;;;10.83;;
15142;SDS011;7672;50.834;6.286;2024-01-15T04:25:31;16.30;;;9.07;;
15142;SDS011;7672;50.834;6.286;2024-01-15T04:40:53;12.97;;;8.23;;
15142;SDS011;7672;50.834;6.286;2024-01-15T04:44:14;16.40;;;8.90;;
15142;SDS011;7672;50.834;6.286;2024-01-15T04:47:53;12.37;;;7.60;;
15142;SDS011;7672;50.834;6.286;2024-01-15T04:50:26;14.07;;;8.50;;
15142;SDS011;7672;50.834;6.286;2024-01-15T04:53:02;14.93;;;9.07;;
15142;SDS011;7672;50.834;6.286;2024-01-15T04:55:32;15.93;;;9.13;;
15142;SDS011;7672;50.834;6.286;2024-01-15T04:57:59;13.87;;;8.70;;
15142;SDS011;7672;50.834;6.286;2024-01-15T05:00:30;18.27;;;9.40;;
15142;SDS011;7672;50.834;6.286;2024-01-15T05:03:22;14.97;;;9.87;;
15142;SDS011;7672;50.834;6.286;2024-01-15T05:06:11;16.53;;;9.80;;
15142;SDS011;7672;50.834;6.286;2024-01-15T05:09:28;19.60;;;10.73;;
15142;SDS011;7672;50.834;6.286;2024-01-15T05:12:46;17.90;;;9.27;;
15142;SDS011;7672;50.834;6.286;2024-01-15T05:17:22;22.57;;;10.73;;
15142;SDS011;7672;50.834;6.286;2024-01-15T05:53:25;17.00;;;8.97;;
15142;SDS011;7672;50.834;6.286;2024-01-15T05:55:53;14.17;;;8.50;;
15142;SDS011;7672;50.834;6.286;2024-01-15T05:58:22;12.60;;;8.17;;
15142;SDS011;7672;50.834;6.286;2024-01-15T06:00:49;11.70;;;7.57;;
15142;SDS011;7672;50.834;6.286;2024-01-15T06:03:17;20.43;;;8.53;;
15142;SDS011;7672;50.834;6.286;2024-01-15T06:05:44;15.90;;;8.63;;
15142;SDS011;7672;50.834;6.286;2024-01-15T06:08:12;14.47;;;8.10;;
15142;SDS011;7672;50.834;6.286;2024-01-15T06:10:41;12.43;;;7.17;;
15142;SDS011;7672;50.834;6.286;2024-01-15T06:13:11;13.53;;;8.17;;
15142;SDS011;7672;50.834;6.286;2024-01-15T06:15:38;12.70;;;7.63;;
15142;SDS011;7672;50.834;6.286;2024-01-15T06:18:05;13.07;;;9.20;;
15142;SDS011;7672;50.834;6.286;2024-01-15T06:20:32;14.97;;;7.77;;
15142;SDS011;7672;50.834;6.286;2024-01-15T06:22:59;12.93;;;7.63;;
15142;SDS011;7672;50.834;6.286;2024-01-15T06:25:29;13.10;;;7.87;;
15142;SDS011;7672;50.834;6.286;2024-01-15T06:27:56;15.40;;;8.50;;
15142;SDS011;7672;50.834;6.286;2024-01-15T06:35:12;13.53;;;8.00;;
15142;SDS011;7672;50.834;6.286;2024-01-15T06:37:44;10.53;;;7.53;;
15142;SDS011;7672;50.834;6.286;2024-01-15T06:40:29;13.30;;;8.00;;
15142;SDS011;7672;50.834;6.286;2024-01-15T06:43:36;13.20;;;8.07;;
15142;SDS011;7672;50.834;6.286;2024-01-15T06:46:25;17.73;;;9.93;;
15142;SDS011;7672;50.834;6.286;2024-01-15T06:49:20;17.37;;;10.47;;
15142;SDS011;7672;50.834;6.286;2024-01-15T06:52:01;16.67;;;10.70;;
15142;SDS011;7672;50.834;6.286;2024-01-15T06:54:42;19.67;;;11.37;;
15142;SDS011;7672;50.834;6.286;2024-01-15T06:57:18;17.17;;;10.47;;
15142;SDS011;7672;50.834;6.286;2024-01-15T07:00:06;21.97;;;11.00;;
15142;SDS011;7672;50.834;6.286;2024-01-15T07:02:51;18.63;;;10.70;;
15142;SDS011;7672;50.834;6.286;2024-01-15T07:05:30;18.57;;;10.37;;
15142;SDS011;7672;50.834;6.286;2024-01-15T07:08:01;17.77;;;10.97;;
15142;SDS011;7672;50.834;6.286;2024-01-15T07:10:33;24.47;;;12.10;;
15142;SDS011;7672;50.834;6.286;2024-01-15T07:13:08;24.33;;;12.23;;
15142;SDS011;7672;50.834;6.286;2024-01-15T07:15:35;20.47;;;11.50;;
15142;SDS011;7672;50.834;6.286;2024-01-15T07:18:02;18.40;;;11.33;;
15142;SDS011;7672;50.834;6.286;2024-01-15T07:20:30;30.08;;;17.08;;
15142;SDS011;7672;50.834;6.286;2024-01-15T07:22:56;21.30;;;13.57;;
15142;SDS011;7672;50.834;6.286;2024-01-15T07:25:23;24.93;;;15.67;;
15142;SDS011;7672;50.834;6.286;2024-01-15T07:27:52;22.17;;;12.27;;
15142;SDS011;7672;50.834;6.286;2024-01-15T07:30:20;20.57;;;12.73;;
15142;SDS011;7672;50.834;6.286;2024-01-15T07:32:48;23.37;;;12.77;;
15142;SDS011;7672;50.834;6.286;2024-01-15T07:35:16;22.50;;;11.57;;
15142;SDS011;7672;50.834;6.286;2024-01-15T07:37:43;20.70;;;11.20;;
15142;SDS011;7672;50.834;6.286;2024-01-15T07:40:10;16.83;;;10.33;;
15142;SDS011;7672;50.834;6.286;2024-01-15T07:42:38;18.23;;;10.27;;
15142;SDS011;7672;50.834;6.286;2024-01-15T07:45:05;23.57;;;10.63;;
15142;SDS011;7672;50.834;6.286;2024-01-15T07:47:32;16.23;;;10.90;;
15142;SDS011;7672;50.834;6.286;2024-01-15T07:49:59;16.83;;;9.93;;
15142;SDS011;7672;50.834;6.286;2024-01-15T07:52:31;16.70;;;9.80;;
15142;SDS011;7672;50.834;6.286;2024-01-15T07:54:58;12.97;;;9.50;;
15142;SDS011;7672;50.834;6.286;2024-01-15T07:57:30;16.10;;;8.47;;
15142;SDS011;7672;50.834;6.286;2024-01-15T07:59:57;14.10;;;8.20;;
15142;SDS011;7672;50.834;6.286;2024-01-15T08:02:24;14.23;;;8.87;;
15142;SDS011;7672;50.834;6.286;2024-01-15T08:04:51;9.10;;;7.67;;
15142;SDS011;7672;50.834;6.286;2024-01-15T08:07:18;13.07;;;7.93;;
15142;SDS011;7672;50.834;6.286;2024-01-15T08:09:45;13.40;;;6.80;;
15142;SDS011;7672;50.834;6.286;2024-01-15T08:12:14;12.27;;;7.83;;
15142;SDS011;7672;50.834;6.286;2024-01-15T08:14:41;12.37;;;7.20;;
15142;SDS011;7672;50.834;6.286;2024-01-15T08:17:08;12.63;;;7.27;;
15142;SDS011;7672;50.834;6.286;2024-01-15T08:19:35;11.90;;;6.03;;
15142;SDS011;7672;50.834;6.286;2024-01-15T08:22:02;8.80;;;5.87;;
15142;SDS011;7672;50.834;6.286;2024-01-15T08:24:29;8.30;;;5.80;;
15142;SDS011;7672;50.834;6.286;2024-01-15T08:26:56;9.80;;;6.23;;
15142;SDS011;7672;50.834;6.286;2024-01-15T08:29:23;18.63;;;6.33;;
15142;SDS011;7672;50.834;6.286;2024-01-15T08:31:51;10.43;;;5.63;;
15142;SDS011;7672;50.834;6.286;2024-01-15T08:34:18;10.37;;;6.47;;
15142;SDS011;7672;50.834;6.286;2024-01-15T08:36:45;12.63;;;5.47;;
15142;SDS011;7672;50.834;6.286;2024-01-15T08:39:13;9.53;;;5.63;;
15142;SDS011;7672;50.834;6.286;2024-01-15T08:41:40;10.93;;;6.83;;
15142;SDS011;7672;50.834;6.286;2024-01-15T08:44:07;10.00;;;5.87;;
15142;SDS011;7672;50.834;6.286;2024-01-15T08:46:34;8.17;;;5.77;;
15142;SDS011;7672;50.834;6.286;2024-01-15T08:49:01;8.83;;;6.00;;
15142;SDS011;7672;50.834;6.286;2024-01-15T08:51:29;10.30;;;5.70;;
15142;SDS011;7672;50.834;6.286;2024-01-15T08:53:57;10.90;;;5.77;;
15142;SDS011;7672;50.834;6.286;2024-01-15T08:56:24;8.60;;;5.50;;
15142;SDS011;7672;50.834;6.286;2024-01-15T08:58:53;6.70;;;5.53;;
15142;SDS011;7672;50.834;6.286;2024-01-15T09:01:20;6.40;;;5.27;;
15142;SDS011;7672;50.834;6.286;2024-01-15T09:03:48;8.37;;;5.70;;
15142;SDS011;7672;50.834;6.286;2024-01-15T09:06:15;8.57;;;5.60;;
15142;SDS011;7672;50.834;6.286;2024-01-15T09:08:42;6.37;;;5.27;;
15142;SDS011;7672;50.834;6.286;2024-01-15T09:11:09;7.53;;;5.50;;
15142;SDS011;7672;50.834;6.286;2024-01-15T09:13:36;8.57;;;5.40;;
15142;SDS011;7672;50.834;6.286;2024-01-15T09:16:03;10.37;;;5.73;;
15142;SDS011;7672;50.834;6.286;2024-01-15T09:18:31;5.63;;;5.07;;
15142;SDS011;7672;50.834;6.286;2024-01-15T09:20:58;8.60;;;6.07;;
15142;SDS011;7672;50.834;6.286;2024-01-15T09:23:26;7.37;;;5.93;;
15142;SDS011;7672;50.834;6.286;2024-01-15T09:25:55;8.10;;;5.93;;
15142;SDS011;7672;50.834;6.286;2024-01-15T09:28:22;7.20;;;5.37;;
15142;SDS011;7672;50.834;6.286;2024-01-15T09:30:49;7.90;;;5.33;;
15142;SDS011;7672;50.834;6.286;2024-01-15T09:33:17;7.17;;;5.27;;
15142;SDS011;7672;50.834;6.286;2024-01-15T09:35:44;8.00;;;5.40;;
15142;SDS011;7672;50.834;6.286;2024-01-15T09:38:12;9.57;;;4.80;;
15142;SDS011;7672;50.834;6.286;2024-01-15T09:40:42;6.07;;;4.70;;
15142;SDS011;7672;50.834;6.286;2024-01-15T10:13:42;9.53;;;4.90;;
15142;SDS011;7672;50.834;6.286;2024-01-15T10:16:55;5.53;;;4.53;;
15142;SDS011;7672;50.834;6.286;2024-01-15T10:21:38;5.37;;;4.60;;
15142;SDS011;7672;50.834;6.286;2024-01-15T10:56:10;6.77;;;4.93;;
15142;SDS011;7672;50.834;6.286;2024-01-15T11:00:03;6.43;;;4.30;;
15142;SDS011;7672;50.834;6.286;2024-01-15T11:02:35;8.67;;;5.10;;
15142;SDS011;7672;50.834;6.286;2024-01-15T11:05:03;8.80;;;4.83;;
15142;SDS011;7672;50.834;6.286;2024-01-15T11:07:32;9.93;;;4.53;;
15142;SDS011;7672;50.834;6.286;2024-01-15T11:09:59;6.83;;;4.43;;
15142;SDS011;7672;50.834;6.286;2024-01-15T11:12:29;8.37;;;4.13;;
15142;SDS011;7672;50.834;6.286;2024-01-15T11:15:02;6.30;;;4.03;;
15142;SDS011;7672;50.834;6.286;2024-01-15T11:17:57;7.23;;;4.50;;
15142;SDS011;7672;50.834;6.286;2024-01-15T11:20:27;7.03;;;4.60;;
15142;SDS011;7672;50.834;6.286;2024-01-15T11:22:54;8.47;;;3.80;;
15142;SDS011;7672;50.834;6.286;2024-01-15T11:25:23;11.33;;;4.27;;
15142;SDS011;7672;50.834;6.286;2024-01-15T11:27:51;6.23;;;3.50;;
15142;SDS011;7672;50.834;6.286;2024-01-15T11:30:19;7.37;;;3.67;;
15142;SDS011;7672;50.834;6.286;2024-01-15T11:32:50;5.23;;;3.53;;
15142;SDS011;7672;50.834;6.286;2024-01-15T11:35:17;5.83;;;3.40;;
15142;SDS011;7672;50.834;6.286;2024-01-15T11:40:19;6.93;;;3.50;;
15142;SDS011;7672;50.834;6.286;2024-01-15T11:42:47;8.70;;;3.73;;
15142;SDS011;7672;50.834;6.286;2024-01-15T11:45:19;7.57;;;4.40;;
15142;SDS011;7672;50.834;6.286;2024-01-15T11:50:33;7.33;;;3.70;;
15142;SDS011;7672;50.834;6.286;2024-01-15T11:53:01;7.40;;;3.90;;
15142;SDS011;7672;50.834;6.286;2024-01-15T11:55:38;7.87;;;3.70;;
15142;SDS011;7672;50.834;6.286;2024-01-15T11:58:10;6.87;;;3.50;;
15142;SDS011;7672;50.834;6.286;2024-01-15T12:00:41;8.73;;;3.40;;
15142;SDS011;7672;50.834;6.286;2024-01-15T12:03:10;8.03;;;3.73;;
15142;SDS011;7672;50.834;6.286;2024-01-15T12:05:38;12.50;;;3.90;;
15142;SDS011;7672;50.834;6.286;2024-01-15T12:08:06;6.10;;;3.27;;
15142;SDS011;7672;50.834;6.286;2024-01-15T12:10:37;5.93;;;3.53;;
15142;SDS011;7672;50.834;6.286;2024-01-15T12:13:05;7.27;;;3.23;;
15142;SDS011;7672;50.834;6.286;2024-01-15T12:15:38;4.03;;;2.90;;
15142;SDS011;7672;50.834;6.286;2024-01-15T12:18:08;10.53;;;3.57;;
15142;SDS011;7672;50.834;6.286;2024-01-15T12:20:37;6.93;;;3.30;;
15142;SDS011;7672;50.834;6.286;2024-01-15T12:23:04;8.77;;;3.13;;
15142;SDS011;7672;50.834;6.286;2024-01-15T12:25:34;2.93;;;2.63;;
15142;SDS011;7672;50.834;6.286;2024-01-15T12:28:01;5.30;;;2.60;;
15142;SDS011;7672;50.834;6.286;2024-01-15T12:30:29;6.27;;;2.87;;
15142;SDS011;7672;50.834;6.286;2024-01-15T12:33:03;10.03;;;3.10;;
15142;SDS011;7672;50.834;6.286;2024-01-15T12:35:33;7.77;;;2.60;;
15142;SDS011;7672;50.834;6.286;2024-01-15T12:38:00;7.00;;;3.17;;
15142;SDS011;7672;50.834;6.286;2024-01-15T12:40:33;6.83;;;2.70;;
15142;SDS011;7672;50.834;6.286;2024-01-15T12:43:02;5.83;;;3.20;;
15142;SDS011;7672;50.834;6.286;2024-01-15T12:45:29;11.13;;;3.20;;
15142;SDS011;7672;50.834;6.286;2024-01-15T12:47:57;7.77;;;2.80;;
15142;SDS011;7672;50.834;6.286;2024-01-15T12:50:25;8.97;;;3.30;;
15142;SDS011;7672;50.834;6.286;2024-01-15T12:52:52;4.83;;;3.40;;
15142;SDS011;7672;50.834;6.286;2024-01-15T12:55:19;5.63;;;3.13;;
15142;SDS011;7672;50.834;6.286;2024-01-15T12:57:46;7.33;;;3.10;;
15142;SDS011;7672;50.834;6.286;2024-01-15T13:00:13;6.17;;;2.63;;
15142;SDS011;7672;50.834;6.286;2024-01-15T13:02:44;4.93;;;2.33;;
15142;SDS011;7672;50.834;6.286;2024-01-15T13:05:11;8.87;;;2.60;;
15142;SDS011;7672;50.834;6.286;2024-01-15T13:07:41;7.63;;;2.63;;
15142;SDS011;7672;50.834;6.286;2024-01-15T13:10:08;4.90;;;2.30;;
15142;SDS011;7672;50.834;6.286;2024-01-15T13:12:36;6.07;;;2.40;;
15142;SDS011;7672;50.834;6.286;2024-01-15T13:15:05;3.83;;;2.13;;
15142;SDS011;7672;50.834;6.286;2024-01-15T13:17:32;2.67;;;2.07;;
15142;SDS011;7672;50.834;6.286;2024-01-15T13:19:59;2.47;;;1.97;;
15142;SDS011;7672;50.834;6.286;2024-01-15T13:22:27;4.10;;;2.50;;
15142;SDS011;7672;50.834;6.286;2024-01-15T13:24:58;3.63;;;2.30;;
15142;SDS011;7672;50.834;6.286;2024-01-15T13:27:25;2.83;;;2.53;;
15142;SDS011;7672;50.834;6.286;2024-01-15T13:29:52;3.73;;;1.93;;
15142;SDS011;7672;50.834;6.286;2024-01-15T13:32:24;4.63;;;2.70;;
15142;SDS011;7672;50.834;6.286;2024-01-15T13:34:59;3.73;;;2.60;;
15142;SDS011;7672;50.834;6.286;2024-01-15T13:37:26;6.73;;;2.87;;
15142;SDS011;7672;50.834;6.286;2024-01-15T13:39:54;3.50;;;2.47;;
15142;SDS011;7672;50.834;6.286;2024-01-15T13:42:22;6.90;;;3.30;;
15142;SDS011;7672;50.834;6.286;2024-01-15T13:44:49;2.07;;;1.87;;
15142;SDS011;7672;50.834;6.286;2024-01-15T13:47:17;2.60;;;1.70;;
15142;SDS011;7672;50.834;6.286;2024-01-15T13:49:44;3.27;;;2.30;;
15142;SDS011;7672;50.834;6.286;2024-01-15T13:52:11;3.83;;;2.10;;
15142;SDS011;7672;50.834;6.286;2024-01-15T13:54:39;2.70;;;2.20;;
15142;SDS011;7672;50.834;6.286;2024-01-15T13:57:16;2.27;;;1.87;;
15142;SDS011;7672;50.834;6.286;2024-01-15T13:59:44;2.50;;;2.20;;
15142;SDS011;7672;50.834;6.286;2024-01-15T14:02:11;4.07;;;3.17;;
15142;SDS011;7672;50.834;6.286;2024-01-15T14:04:41;4.10;;;2.10;;
15142;SDS011;7672;50.834;6.286;2024-01-15T14:07:08;4.97;;;2.10;;
15142;SDS011;7672;50.834;6.286;2024-01-15T14:09:35;2.30;;;2.10;;
15142;SDS011;7672;50.834;6.286;2024-01-15T14:12:04;2.73;;;2.00;;
15142;SDS011;7672;50.834;6.286;2024-01-15T14:14:31;2.47;;;2.27;;
15142;SDS011;7672;50.834;6.286;2024-01-15T14:16:58;2.20;;;2.00;;
15142;SDS011;7672;50.834;6.286;2024-01-15T14:19:25;3.67;;;2.30;;
15142;SDS011;7672;50.834;6.286;2024-01-15T14:21:52;4.50;;;2.63;;
15142;SDS011;7672;50.834;6.286;2024-01-15T14:24:19;2.80;;;2.50;;
15142;SDS011;7672;50.834;6.286;2024-01-15T14:26:46;3.30;;;2.10;;
15142;SDS011;7672;50.834;6.286;2024-01-15T14:29:12;2.20;;;2.00;;
15142;SDS011;7672;50.834;6.286;2024-01-15T14:31:39;5.57;;;2.40;;
15142;SDS011;7672;50.834;6.286;2024-01-15T14:34:07;2.30;;;2.10;;
15142;SDS011;7672;50.834;6.286;2024-01-15T14:36:34;2.20;;;2.10;;
15142;SDS011;7672;50.834;6.286;2024-01-15T14:39:01;2.93;;;2.00;;
15142;SDS011;7672;50.834;6.286;2024-01-15T14:41:29;4.00;;;2.27;;
15142;SDS011;7672;50.834;6.286;2024-01-15T14:43:56;3.10;;;2.03;;
15142;SDS011;7672;50.834;6.286;2024-01-15T14:46:24;3.13;;;2.33;;
15142;SDS011;7672;50.834;6.286;2024-01-15T14:48:50;4.30;;;2.27;;
15142;SDS011;7672;50.834;6.286;2024-01-15T14:51:17;3.07;;;2.47;;
15142;SDS011;7672;50.834;6.286;2024-01-15T14:53:45;3.00;;;2.37;;
15142;SDS011;7672;50.834;6.286;2024-01-15T14:56:12;3.10;;;2.80;;
15142;SDS011;7672;50.834;6.286;2024-01-15T14:58:43;5.47;;;2.50;;
15142;SDS011;7672;50.834;6.286;2024-01-15T15:01:10;6.10;;;2.70;;
15142;SDS011;7672;50.834;6.286;2024-01-15T15:03:38;5.60;;;3.00;;
15142;SDS011;7672;50.834;6.286;2024-01-15T15:06:05;3.50;;;2.53;;
15142;SDS011;7672;50.834;6.286;2024-01-15T15:08:35;6.10;;;3.30;;
15142;SDS011;7672;50.834;6.286;2024-01-15T15:11:03;4.70;;;2.07;;
15142;SDS011;7672;50.834;6.286;2024-01-15T15:13:30;2.90;;;2.23;;
15142;SDS011;7672;50.834;6.286;2024-01-15T15:16:10;2.43;;;2.00;;
15142;SDS011;7672;50.834;6.286;2024-01-15T15:18:39;4.37;;;2.40;;
15142;SDS011;7672;50.834;6.286;2024-01-15T15:21:06;4.57;;;2.43;;
15142;SDS011;7672;50.834;6.286;2024-01-15T15:23:34;3.57;;;2.40;;
15142;SDS011;7672;50.834;6.286;2024-01-15T15:26:01;3.23;;;2.40;;
15142;SDS011;7672;50.834;6.286;2024-01-15T15:28:29;3.87;;;2.97;;
15142;SDS011;7672;50.834;6.286;2024-01-15T15:30:56;5.33;;;3.57;;
15142;SDS011;7672;50.834;6.286;2024-01-15T15:33:23;4.27;;;3.20;;
15142;SDS011;7672;50.834;6.286;2024-01-15T15:35:51;6.87;;;3.90;;
15142;SDS011;7672;50.834;6.286;2024-01-15T15:38:18;7.83;;;4.00;;
15142;SDS011;7672;50.834;6.286;2024-01-15T15:40:46;4.23;;;3.10;;
15142;SDS011;7672;50.834;6.286;2024-01-15T15:43:13;6.57;;;3.40;;
15142;SDS011;7672;50.834;6.286;2024-01-15T15:45:39;6.70;;;2.13;;
15142;SDS011;7672;50.834;6.286;2024-01-15T15:48:06;6.60;;;2.60;;
15142;SDS011;7672;50.834;6.286;2024-01-15T15:50:33;2.40;;;2.20;;
15142;SDS011;7672;50.834;6.286;2024-01-15T15:53:03;3.40;;;2.40;;
15142;SDS011;7672;50.834;6.286;2024-01-15T15:55:30;3.43;;;2.60;;
15142;SDS011;7672;50.834;6.286;2024-01-15T15:57:58;3.20;;;2.20;;
15142;SDS011;7672;50.834;6.286;2024-01-15T16:00:25;4.57;;;2.67;;
15142;SDS011;7672;50.834;6.286;2024-01-15T16:02:52;3.13;;;2.40;;
15142;SDS011;7672;50.834;6.286;2024-01-15T16:05:19;4.37;;;2.73;;
15142;SDS011;7672;50.834;6.286;2024-01-15T16:07:46;2.63;;;2.20;;
15142;SDS011;7672;50.834;6.286;2024-01-15T16:10:13;3.97;;;2.37;;
15142;SDS011;7672;50.834;6.286;2024-01-15T16:12:41;3.20;;;2.83;;
15142;SDS011;7672;50.834;6.286;2024-01-15T16:15:18;4.10;;;2.87;;
15142;SDS011;7672;50.834;6.286;2024-01-15T16:17:50;3.57;;;2.63;;
15142;SDS011;7672;50.834;6.286;2024-01-15T16:20:37;5.77;;;3.40;;
15142;SDS011;7672;50.834;6.286;2024-01-15T16:23:24;5.07;;;3.23;;
15142;SDS011;7672;50.834;6.286;2024-01-15T16:26:11;3.57;;;2.97;;
15142;SDS011;7672;50.834;6.286;2024-01-15T16:28:39;5.33;;;2.87;;
15142;SDS011;7672;50.834;6.286;2024-01-15T16:31:06;8.50;;;3.37;;
15142;SDS011;7672;50.834;6.286;2024-01-15T16:33:35;9.07;;;3.63;;
15142;SDS011;7672;50.834;6.286;2024-01-15T16:36:02;4.10;;;2.40;;
15142;SDS011;7672;50.834;6.286;2024-01-15T16:38:30;5.27;;;3.00;;
15142;SDS011;7672;50.834;6.286;2024-01-15T16:40:57;3.10;;;2.80;;
15142;SDS011;7672;50.834;6.286;2024-01-15T16:43:25;5.77;;;3.27;;
15142;SDS011;7672;50.834;6.286;2024-01-15T16:45:52;4.07;;;2.70;;
15142;SDS011;7672;50.834;6.286;2024-01-15T16:48:20;4.77;;;3.63;;
15142;SDS011;7672;50.834;6.286;2024-01-15T16:50:47;5.80;;;3.70;;
15142;SDS011;7672;50.834;6.286;2024-01-15T16:53:14;5.93;;;3.50;;
15142;SDS011;7672;50.834;6.286;2024-01-15T16:55:41;4.93;;;3.70;;
15142;SDS011;7672;50.834;6.286;2024-01-15T16:58:08;4.33;;;3.93;;
15142;SDS011;7672;50.834;6.286;2024-01-15T17:00:35;4.27;;;3.50;;
15142;SDS011;7672;50.834;6.286;2024-01-15T17:03:02;5.57;;;2.90;;
15142;SDS011;7672;50.834;6.286;2024-01-15T17:05:30;4.50;;;3.07;;
15142;SDS011;7672;50.834;6.286;2024-01-15T17:07:57;4.27;;;3.20;;
15142;SDS011;7672;50.834;6.286;2024-01-15T17:10:24;9.60;;;4.43;;
15142;SDS011;7672;50.834;6.286;2024-01-15T17:12:51;4.23;;;3.80;;